createdAt,value
2018-12-25T00:01:14.552Z,99858.95
2018-12-25T00:03:44.711Z,99854.83
2018-12-25T00:06:14.865Z,99860.34
2018-12-25T00:08:45.165Z,99857.82
2018-12-25T00:11:15.330Z,99864.91
2018-12-25T00:13:45.561Z,99871.55
2018-12-25T00:16:15.672Z,99871.89
2018-12-25T00:18:45.962Z,99873.52
2018-12-25T00:21:16.237Z,99881.58
2018-12-25T00:23:46.412Z,99879.26
2018-12-25T00:26:16.598Z,99884.63
2018-12-25T00:28:46.821Z,99880.11
2018-12-25T00:31:16.994Z,99883.30
2018-12-25T00:33:47.188Z,99888.77
2018-12-25T00:36:17.611Z,99889.45
2018-12-25T00:38:47.832Z,99892.11
2018-12-25T00:41:17.970Z,99899.59
2018-12-25T00:43:48.155Z,99899.44
2018-12-25T00:46:18.260Z,99899.44
2018-12-25T00:48:50.789Z,99902.94
2018-12-25T00:51:21.205Z,99903.13
2018-12-25T00:53:51.437Z,99905.45
2018-12-25T00:56:21.787Z,99916.45
2018-12-25T00:58:52.029Z,99915.08
2018-12-25T01:01:22.188Z,99925.80
2018-12-25T01:03:52.426Z,99929.14
2018-12-25T01:06:22.596Z,99938.45
2018-12-25T01:08:53.105Z,99936.38
2018-12-25T01:11:23.256Z,99937.81
2018-12-25T01:13:53.440Z,99940.25
2018-12-25T01:16:23.602Z,99925.31
2018-12-25T01:18:53.826Z,99923.69
2018-12-25T01:21:24.002Z,99924.76
2018-12-25T01:23:54.179Z,99924.01
2018-12-25T01:26:24.385Z,99922.92
2018-12-25T01:28:54.653Z,99911.06
2018-12-25T01:31:24.802Z,99907.76
2018-12-25T01:33:54.943Z,99895.81
2018-12-25T01:36:25.156Z,99893.47
2018-12-25T01:38:55.342Z,99899.16
2018-12-25T01:41:25.538Z,99900.91
2018-12-25T01:43:55.697Z,99900.95
2018-12-25T01:46:25.841Z,99895.86
2018-12-25T01:48:56.047Z,99893.36
2018-12-25T01:51:26.210Z,99895.34
2018-12-25T01:53:56.353Z,99892.67
2018-12-25T01:56:26.488Z,99899.47
2018-12-25T01:58:56.666Z,99903.67
2018-12-25T02:01:26.822Z,99900.52
2018-12-25T02:03:57.016Z,99892.97
2018-12-25T02:06:27.155Z,99891.50
2018-12-25T02:08:57.432Z,99899.64
2018-12-25T02:11:27.633Z,99894.52
2018-12-25T02:13:57.741Z,99892.40
2018-12-25T02:16:27.990Z,99893.94
2018-12-25T02:18:58.153Z,99900.41
2018-12-25T02:21:28.385Z,99926.90
2018-12-25T02:23:58.616Z,99926.90
2018-12-25T02:26:28.911Z,99946.23
2018-12-25T02:28:59.079Z,99946.23
2018-12-25T02:31:29.355Z,99949.85
2018-12-25T02:33:59.471Z,99941.61
2018-12-25T02:36:29.701Z,99946.58
2018-12-25T02:38:59.868Z,99942.27
2018-12-25T02:41:30.098Z,99942.27
2018-12-25T02:44:00.242Z,99934.48
2018-12-25T02:46:30.410Z,99927.89
2018-12-25T02:49:00.620Z,99922.89
2018-12-25T02:51:30.854Z,99913.15
2018-12-25T02:54:01.067Z,99905.38
2018-12-25T02:56:31.225Z,99899.80
2018-12-25T02:59:01.377Z,99891.56
2018-12-25T03:01:31.585Z,99891.56
2018-12-25T03:04:01.813Z,99892.70
2018-12-25T03:06:31.983Z,99885.77
2018-12-25T03:09:02.173Z,99892.59
2018-12-25T03:11:32.419Z,99889.64
2018-12-25T03:14:02.720Z,99891.80
2018-12-25T03:16:32.870Z,99886.52
2018-12-25T03:19:03.104Z,99881.24
2018-12-25T03:21:33.223Z,99884.57
2018-12-25T03:24:03.422Z,99881.91
2018-12-25T03:26:33.741Z,99881.94
2018-12-25T03:29:03.966Z,99879.14
2018-12-25T03:31:34.155Z,99872.84
2018-12-25T03:34:04.309Z,99872.84
2018-12-25T03:36:34.504Z,99872.04
2018-12-25T03:39:06.382Z,99870.73
2018-12-25T03:41:36.768Z,99870.77
2018-12-25T03:44:06.922Z,99879.37
2018-12-25T03:46:37.133Z,99884.34
2018-12-25T03:49:07.243Z,99874.41
2018-12-25T03:51:37.533Z,99880.72
2018-12-25T03:54:07.715Z,99874.77
2018-12-25T03:56:37.920Z,99885.68
2018-12-25T03:59:08.050Z,99874.10
2018-12-25T04:01:38.251Z,99875.09
2018-12-25T04:04:08.465Z,99876.77
2018-12-25T04:06:38.709Z,99872.83
2018-12-25T04:09:08.855Z,99872.83
2018-12-25T04:11:39.088Z,99870.50
2018-12-25T04:14:09.314Z,99871.50
2018-12-25T04:16:39.458Z,99873.66
2018-12-25T04:19:09.634Z,99875.52
2018-12-25T04:21:39.908Z,99878.05
2018-12-25T04:24:10.016Z,99879.98
2018-12-25T04:26:40.249Z,99886.45
2018-12-25T04:29:10.361Z,99885.61
2018-12-25T04:31:40.931Z,99891.73
2018-12-25T04:34:11.150Z,99897.49
2018-12-25T04:36:41.308Z,99904.26
2018-12-25T04:39:11.437Z,99906.03
2018-12-25T04:41:41.535Z,99899.00
2018-12-25T04:44:11.718Z,99900.78
2018-12-25T04:46:41.956Z,99902.05
2018-12-25T04:49:12.088Z,99905.52
2018-12-25T04:51:43.298Z,99898.00
2018-12-25T04:54:13.494Z,99896.31
2018-12-25T04:56:43.672Z,99891.13
2018-12-25T04:59:13.821Z,99890.23
2018-12-25T05:01:43.964Z,99895.84
2018-12-25T05:04:14.157Z,99891.23
2018-12-25T05:06:45.244Z,99892.17
2018-12-25T05:09:15.467Z,99890.81
2018-12-25T05:11:45.679Z,99891.46
2018-12-25T05:14:16.933Z,99890.48
2018-12-25T05:16:47.157Z,99889.80
2018-12-25T05:19:17.362Z,99891.92
2018-12-25T05:21:47.519Z,99901.13
2018-12-25T05:24:18.673Z,99906.55
2018-12-25T05:26:52.840Z,99915.16
2018-12-25T05:29:23.009Z,99916.27
2018-12-25T05:31:53.173Z,99915.92
2018-12-25T05:34:23.338Z,99917.39
2018-12-25T05:36:53.457Z,99920.84
2018-12-25T05:39:23.727Z,99916.17
2018-12-25T05:41:53.913Z,99922.13
2018-12-25T05:44:24.148Z,99923.56
2018-12-25T05:46:54.302Z,99926.37
2018-12-25T05:49:24.513Z,99925.69
2018-12-25T05:51:54.675Z,99920.19
2018-12-25T05:54:24.983Z,99917.87
2018-12-25T05:56:55.135Z,99909.26
2018-12-25T05:59:25.324Z,99920.38
2018-12-25T06:01:55.474Z,99925.23
2018-12-25T06:04:25.816Z,99919.55
2018-12-25T06:06:56.024Z,99918.03
2018-12-25T06:09:27.263Z,99926.33
2018-12-25T06:11:57.395Z,99928.88
2018-12-25T06:14:27.579Z,99930.20
2018-12-25T06:16:57.792Z,99934.19
2018-12-25T06:19:28.071Z,99931.23
2018-12-25T06:21:58.207Z,99929.75
2018-12-25T06:24:28.426Z,99920.80
2018-12-25T06:26:58.531Z,99921.67
2018-12-25T06:29:28.777Z,99917.69
2018-12-25T06:31:58.936Z,99931.31
2018-12-25T06:34:29.209Z,99931.80
2018-12-25T06:36:59.448Z,99927.17
2018-12-25T06:39:29.598Z,99924.37
2018-12-25T06:41:59.761Z,99921.41
2018-12-25T06:44:29.928Z,99922.20
2018-12-25T06:47:00.108Z,99925.02
2018-12-25T06:49:30.239Z,99924.83
2018-12-25T06:52:00.525Z,99911.97
2018-12-25T06:54:30.739Z,99909.30
2018-12-25T06:57:00.922Z,99911.58
2018-12-25T06:59:31.116Z,99916.05
2018-12-25T07:02:02.278Z,99923.13
2018-12-25T07:04:32.528Z,99915.77
2018-12-25T07:07:02.730Z,99922.41
2018-12-25T07:09:32.902Z,99916.06
2018-12-25T07:12:03.113Z,99916.84
2018-12-25T07:14:33.271Z,99914.19
2018-12-25T07:17:03.481Z,99918.81
2018-12-25T07:19:33.656Z,99921.28
2018-12-25T07:22:03.831Z,99929.20
2018-12-25T07:24:34.021Z,99927.29
2018-12-25T07:27:04.289Z,99924.62
2018-12-25T07:29:34.522Z,99926.89
2018-12-25T07:32:04.819Z,99933.82
2018-12-25T07:34:35.069Z,99941.64
2018-12-25T07:37:05.332Z,99936.28
2018-12-25T07:39:35.558Z,99932.44
2018-12-25T07:42:05.853Z,99936.05
2018-12-25T07:44:36.358Z,99935.01
2018-12-25T07:47:06.898Z,99931.66
2018-12-25T07:49:37.423Z,99932.69
2018-12-25T07:52:08.071Z,99934.91
2018-12-25T07:54:38.478Z,99942.97
2018-12-25T07:57:08.826Z,99941.23
2018-12-25T07:59:39.182Z,99937.06
2018-12-25T08:02:09.373Z,99938.48
2018-12-25T08:04:39.862Z,99940.05
2018-12-25T08:07:10.302Z,99942.16
2018-12-25T08:09:40.717Z,99934.73
2018-12-25T08:12:10.949Z,99930.98
2018-12-25T08:14:41.257Z,99936.19
2018-12-25T08:17:11.611Z,99939.95
2018-12-25T08:19:42.398Z,99945.36
2018-12-25T08:22:12.647Z,99943.97
2018-12-25T08:24:42.891Z,99940.68
2018-12-25T08:27:13.036Z,99945.55
2018-12-25T08:29:43.233Z,99944.91
2018-12-25T08:32:13.425Z,99954.50
2018-12-25T08:34:43.767Z,99954.78
2018-12-25T08:37:13.934Z,99951.09
2018-12-25T08:39:44.114Z,99952.75
2018-12-25T08:42:14.291Z,99953.39
2018-12-25T08:44:44.439Z,99959.62
2018-12-25T08:47:14.559Z,99958.86
2018-12-25T08:49:44.732Z,99961.23
2018-12-25T08:52:15.052Z,99963.97
2018-12-25T08:54:45.204Z,99960.34
2018-12-25T08:57:15.417Z,99956.41
2018-12-25T08:59:45.646Z,99946.20
2018-12-25T09:02:15.757Z,99950.83
2018-12-25T09:04:46.024Z,99952.37
2018-12-25T09:07:16.179Z,99958.22
2018-12-25T09:09:46.409Z,99955.72
2018-12-25T09:12:16.541Z,99961.95
2018-12-25T09:14:46.783Z,99964.81
2018-12-25T09:17:16.886Z,99963.77
2018-12-25T09:19:47.078Z,99959.98
2018-12-25T09:22:17.248Z,99959.66
2018-12-25T09:24:47.533Z,99952.50
2018-12-25T09:27:17.702Z,99949.06
2018-12-25T09:29:47.934Z,99958.13
2018-12-25T09:32:18.104Z,99959.09
2018-12-25T09:34:48.313Z,99961.95
2018-12-25T09:37:18.448Z,99959.22
2018-12-25T09:39:48.706Z,99961.88
2018-12-25T09:42:18.950Z,99968.80
2018-12-25T09:44:49.132Z,99966.97
2018-12-25T09:47:19.320Z,99976.01
2018-12-25T09:49:49.492Z,99986.92
2018-12-25T09:52:19.629Z,99996.69
2018-12-25T09:54:49.919Z,100002.79
2018-12-25T09:57:20.051Z,99993.77
2018-12-25T09:59:50.313Z,99992.73
2018-12-25T10:02:20.537Z,99991.64
2018-12-25T10:04:50.740Z,99992.68
2018-12-25T10:07:20.932Z,100000.08
2018-12-25T10:09:51.056Z,99988.86
2018-12-25T10:12:21.264Z,99991.79
2018-12-25T10:14:51.418Z,99996.11
2018-12-25T10:17:21.805Z,99999.47
2018-12-25T10:19:52.008Z,99994.59
2018-12-25T10:22:22.187Z,99991.72
2018-12-25T10:24:52.380Z,100001.62
2018-12-25T10:27:22.676Z,99993.77
2018-12-25T10:29:52.817Z,100000.89
2018-12-25T10:32:23.144Z,100002.02
2018-12-25T10:34:53.642Z,100008.04
2018-12-25T10:37:24.180Z,100011.16
2018-12-25T10:39:54.282Z,100000.67
2018-12-25T10:42:24.559Z,99999.80
2018-12-25T10:44:54.770Z,99991.47
2018-12-25T10:47:24.990Z,99992.87
2018-12-25T10:49:55.261Z,99991.30
2018-12-25T10:52:25.578Z,100003.20
2018-12-25T10:54:55.758Z,99996.45
2018-12-25T10:57:25.992Z,99993.63
2018-12-25T10:59:56.188Z,99990.79
2018-12-25T11:02:26.533Z,99998.41
2018-12-25T11:04:56.999Z,99995.55
2018-12-25T11:07:27.520Z,99988.08
2018-12-25T11:09:57.844Z,99981.25
2018-12-25T11:12:28.259Z,99969.61
2018-12-25T11:14:59.000Z,99961.66
2018-12-25T11:17:29.363Z,99961.97
2018-12-25T11:19:59.732Z,99955.96
2018-12-25T11:22:30.413Z,99952.58
2018-12-25T11:25:00.784Z,99954.58
2018-12-25T11:27:31.327Z,99943.61
2018-12-25T11:30:01.587Z,99949.48
2018-12-25T11:32:32.354Z,99945.07
2018-12-25T11:35:02.828Z,99943.13
2018-12-25T11:37:33.456Z,99946.34
2018-12-25T11:40:04.871Z,99949.91
2018-12-25T11:42:35.364Z,99949.34
2018-12-25T11:45:05.589Z,99934.20
2018-12-25T11:47:35.779Z,99931.83
2018-12-25T11:50:06.127Z,99928.66
2018-12-25T11:52:36.329Z,99923.95
2018-12-25T11:55:06.541Z,99917.06
2018-12-25T11:57:36.992Z,99906.71
2018-12-25T12:00:08.190Z,99903.55
2018-12-25T12:02:38.504Z,99897.50
2018-12-25T12:05:08.769Z,99899.78
2018-12-25T12:07:39.069Z,99906.98
2018-12-25T12:10:09.701Z,99913.89
2018-12-25T12:12:40.013Z,99909.56
2018-12-25T12:15:10.507Z,99910.39
2018-12-25T12:17:40.854Z,99907.08
2018-12-25T12:20:11.019Z,99913.84
2018-12-25T12:22:41.263Z,99922.15
2018-12-25T12:25:11.455Z,99918.41
2018-12-25T12:27:41.700Z,99915.78
2018-12-25T12:30:11.863Z,99921.98
2018-12-25T12:32:42.237Z,99907.66
2018-12-25T12:35:12.384Z,99905.56
2018-12-25T12:37:42.615Z,99902.92
2018-12-25T12:40:12.822Z,99899.22
2018-12-25T12:42:43.000Z,99907.64
2018-12-25T12:45:13.280Z,99913.18
2018-12-25T12:47:43.463Z,99914.75
2018-12-25T12:50:13.639Z,99925.63
2018-12-25T12:52:45.717Z,99928.78
2018-12-25T12:55:15.798Z,99928.83
2018-12-25T12:57:46.046Z,99925.09
2018-12-25T13:00:16.240Z,99935.15
2018-12-25T13:02:46.443Z,99942.08
2018-12-25T13:05:16.609Z,99941.20
2018-12-25T13:07:46.760Z,99941.70
2018-12-25T13:10:16.970Z,99936.59
2018-12-25T13:12:47.195Z,99934.77
2018-12-25T13:15:17.498Z,99932.06
2018-12-25T13:17:47.670Z,99931.41
2018-12-25T13:20:17.828Z,99929.75
2018-12-25T13:22:54.066Z,99935.25
2018-12-25T13:25:19.924Z,99930.70
2018-12-25T13:27:50.230Z,99933.67
2018-12-25T13:30:22.015Z,99937.45
2018-12-25T13:32:52.270Z,99943.33
2018-12-25T13:35:22.708Z,99938.70
2018-12-25T13:37:53.004Z,99941.97
2018-12-25T13:40:26.070Z,99937.84
2018-12-25T13:42:56.291Z,99945.11
2018-12-25T13:45:26.546Z,99948.55
2018-12-25T13:47:56.719Z,99951.33
2018-12-25T13:50:26.877Z,99953.83
2018-12-25T13:53:02.795Z,99949.07
2018-12-25T13:55:29.194Z,99955.48
2018-12-25T13:57:59.681Z,99955.58
2018-12-25T14:00:29.929Z,99957.45
2018-12-25T14:03:00.258Z,99956.95
2018-12-25T14:05:31.415Z,99957.54
2018-12-25T14:08:03.638Z,99960.08
2018-12-25T14:10:33.839Z,99959.11
2018-12-25T14:13:04.245Z,99962.10
2018-12-25T14:15:34.717Z,99966.05
2018-12-25T14:18:04.925Z,99969.16
2018-12-25T14:20:35.122Z,99980.69
2018-12-25T14:23:11.164Z,99981.23
2018-12-25T14:25:37.517Z,99985.83
2018-12-25T14:28:07.759Z,99974.70
2018-12-25T14:30:38.991Z,99979.49
2018-12-25T14:33:09.247Z,99981.33
2018-12-25T14:35:39.419Z,99976.91
2018-12-25T14:38:11.448Z,99977.25
2018-12-25T14:40:41.609Z,99979.04
2018-12-25T14:43:12.079Z,99985.09
2018-12-25T14:45:42.388Z,99977.50
2018-12-25T14:48:12.887Z,99974.87
2018-12-25T14:50:43.342Z,99978.99
2018-12-25T14:53:19.691Z,99976.30
2018-12-25T14:55:45.761Z,99971.30
2018-12-25T14:58:16.214Z,99977.52
2018-12-25T15:00:46.827Z,99978.52
2018-12-25T15:03:17.203Z,99975.70
2018-12-25T15:05:47.555Z,99979.48
2018-12-25T15:08:20.795Z,99979.82
2018-12-25T15:58:50.398Z,100001.39
2018-12-25T16:01:23.674Z,99999.72
2018-12-25T16:03:54.213Z,99997.95
2018-12-25T16:06:25.108Z,100002.39
2018-12-25T16:08:55.830Z,100007.39
2018-12-25T16:11:26.559Z,99998.12
2018-12-25T16:13:59.866Z,100007.52
2018-12-25T16:16:30.845Z,99998.73
2018-12-25T16:19:01.235Z,100011.71
2018-12-25T16:21:31.782Z,100015.97
2018-12-25T16:24:02.531Z,100015.25
2018-12-25T16:26:33.241Z,100019.89
2018-12-25T16:29:03.757Z,100011.33
2018-12-25T16:31:34.126Z,100003.29
2018-12-25T16:34:05.121Z,100004.36
2018-12-25T16:36:35.961Z,99999.56
2018-12-25T16:39:08.566Z,100001.52
2018-12-25T16:41:39.174Z,99989.34
2018-12-25T16:44:09.759Z,99984.22
2018-12-25T16:46:40.202Z,99974.00
2018-12-25T16:49:10.607Z,99978.16
2018-12-25T16:51:41.639Z,99976.16
2018-12-25T16:54:12.146Z,99977.22
2018-12-25T16:56:42.806Z,99975.67
2018-12-25T16:59:15.862Z,99976.76
2018-12-25T17:01:46.461Z,99974.56
2018-12-25T17:04:17.290Z,99963.72
2018-12-25T17:06:49.101Z,99963.02
2018-12-25T17:09:19.694Z,99967.27
2018-12-25T17:11:50.070Z,99968.54
2018-12-25T17:14:22.100Z,99973.03
2018-12-25T17:16:52.290Z,99976.59
2018-12-25T17:19:22.451Z,99978.09
2018-12-25T17:21:52.772Z,99971.47
2018-12-25T17:24:22.970Z,99968.05
2018-12-25T17:26:53.653Z,99970.55
2018-12-25T17:29:26.858Z,99966.88
2018-12-25T17:31:57.206Z,99966.57
2018-12-25T17:34:29.606Z,99968.33
2018-12-25T17:36:59.838Z,99962.56
2018-12-25T17:39:30.417Z,99956.42
2018-12-25T17:42:00.791Z,99963.14
2018-12-25T17:44:31.162Z,99956.40
2018-12-25T17:47:01.467Z,99959.06
2018-12-25T17:49:31.736Z,99963.16
2018-12-25T17:52:02.002Z,99957.17
2018-12-25T17:54:32.258Z,99964.45
2018-12-25T17:57:02.712Z,99965.00
2018-12-25T17:59:33.186Z,99962.49
2018-12-25T18:02:03.711Z,99963.75
2018-12-25T18:04:33.882Z,99959.02
2018-12-25T18:07:04.279Z,99957.48
2018-12-25T18:09:34.791Z,99963.64
2018-12-25T18:12:05.265Z,99957.69
2018-12-25T18:14:37.657Z,99959.46
2018-12-25T18:17:07.946Z,99958.29
2018-12-25T18:19:38.171Z,99947.52
2018-12-25T18:22:08.784Z,99950.55
2018-12-25T18:24:39.345Z,99951.18
2018-12-25T18:27:09.691Z,99952.42
2018-12-25T18:29:42.816Z,99946.55
2018-12-25T18:32:13.379Z,99948.73
2018-12-25T18:34:43.858Z,99956.42
2018-12-25T18:37:14.137Z,99947.40
2018-12-25T18:39:54.439Z,99944.23
2018-12-25T18:42:26.620Z,99940.94
2018-12-25T18:44:57.239Z,99945.93
2018-12-25T18:47:27.701Z,99953.84
2018-12-25T18:49:59.312Z,99949.28
2018-12-25T18:52:29.847Z,99950.52
2018-12-25T18:55:00.276Z,99947.64
2018-12-25T18:57:30.954Z,99949.85
2018-12-25T19:00:01.685Z,99942.89
2018-12-25T19:02:33.300Z,99943.11
2018-12-25T19:05:03.747Z,99942.71
2018-12-25T19:07:34.100Z,99938.98
2018-12-25T19:10:04.662Z,99939.34
2018-12-25T19:12:35.013Z,99941.98
2018-12-25T19:15:31.660Z,99945.14
2018-12-25T19:18:02.750Z,99945.21
2018-12-25T19:20:33.245Z,99941.34
2018-12-25T19:23:03.607Z,99928.47
2018-12-25T19:25:33.949Z,99928.56
2018-12-25T19:28:04.281Z,99928.34
2018-12-25T19:30:36.940Z,99927.57
2018-12-25T19:33:07.317Z,99923.08
2018-12-25T19:35:37.683Z,99920.55
2018-12-25T19:38:07.978Z,99915.86
2018-12-25T19:40:41.464Z,99919.48
2018-12-25T19:43:11.840Z,99917.95
2018-12-25T19:45:42.382Z,99916.55
2018-12-25T19:48:12.985Z,99917.36
2018-12-25T19:50:43.416Z,99927.08
2018-12-25T19:53:15.497Z,99926.24
2018-12-25T19:55:46.023Z,99925.80
2018-12-25T19:58:16.967Z,99924.00
2018-12-25T20:00:47.611Z,99915.59
2018-12-25T20:03:28.015Z,99913.40
2018-12-25T20:06:36.281Z,99907.75
2018-12-25T20:09:55.550Z,99897.36
2018-12-25T20:13:06.322Z,99900.02
2018-12-25T20:16:42.056Z,99897.59
2018-12-25T20:19:46.088Z,99902.05
2018-12-25T20:22:49.996Z,99897.62
2018-12-25T20:25:39.229Z,99900.91
2018-12-25T20:28:18.247Z,99898.55
2018-12-25T20:31:42.908Z,99894.19
2018-12-25T20:34:47.912Z,99888.98
2018-12-25T20:37:54.308Z,99881.04
2018-12-25T20:41:10.760Z,99873.13
2018-12-25T20:44:20.333Z,99883.14
2018-12-25T20:47:20.869Z,99877.63
2018-12-25T20:50:46.163Z,99871.63
2018-12-25T20:53:45.813Z,99865.54
2018-12-25T20:57:03.662Z,99859.11
2018-12-25T21:00:02.905Z,99858.11
2018-12-25T21:03:11.353Z,99849.49
2018-12-25T21:06:24.546Z,99846.00
2018-12-25T21:09:30.967Z,99853.56
2018-12-25T21:12:45.691Z,99851.27
2018-12-25T21:15:55.742Z,99845.31
2018-12-25T21:19:00.635Z,99836.38
2018-12-25T21:22:05.807Z,99838.14
2018-12-25T21:25:11.966Z,99835.30
2018-12-25T21:27:40.820Z,99829.84
2018-12-25T21:30:11.577Z,99828.19
2018-12-25T21:32:43.553Z,99825.83
2018-12-25T21:35:19.772Z,99825.53
2018-12-25T21:37:50.943Z,99829.78
2018-12-25T21:40:21.752Z,99820.83
2018-12-25T21:42:53.223Z,99818.17
2018-12-25T21:45:24.272Z,99819.58
2018-12-25T21:47:55.654Z,99820.83
2018-12-25T21:50:26.176Z,99813.30
2018-12-25T21:52:57.989Z,99821.20
2018-12-25T21:55:29.323Z,99823.13
2018-12-25T21:58:37.524Z,99826.63
2018-12-25T22:01:17.859Z,99823.59
2018-12-25T22:03:50.229Z,99822.56
2018-12-25T22:06:41.923Z,99817.72
2018-12-25T22:09:12.758Z,99816.77
2018-12-25T22:11:45.321Z,99818.47
2018-12-25T22:14:15.539Z,99814.35
2018-12-25T22:16:45.884Z,99818.14
2018-12-25T22:19:16.295Z,99828.42
2018-12-25T22:21:47.212Z,99828.64
2018-12-25T22:24:18.833Z,99821.81
2018-12-25T22:26:50.409Z,99820.89
2018-12-25T22:29:20.785Z,99818.86
2018-12-25T22:31:51.736Z,99822.15
2018-12-25T22:34:22.180Z,99819.98
2018-12-25T22:36:52.489Z,99824.94
2018-12-25T22:39:23.119Z,99818.16
2018-12-25T22:41:53.637Z,99820.81
2018-12-25T22:44:24.436Z,99818.28
2018-12-25T22:46:54.903Z,99812.95
2018-12-25T22:49:35.653Z,99806.71
2018-12-25T22:52:06.030Z,99803.83
2018-12-25T22:54:36.768Z,99803.37
2018-12-25T22:57:07.270Z,99810.08
2018-12-25T22:59:37.704Z,99798.09
2018-12-25T23:02:08.558Z,99796.55
2018-12-25T23:04:38.891Z,99794.47
2018-12-25T23:07:09.504Z,99789.84
2018-12-25T23:09:40.187Z,99791.31
2018-12-25T23:12:10.681Z,99791.47
2018-12-25T23:14:45.501Z,99791.55
2018-12-25T23:17:15.812Z,99797.95
2018-12-25T23:19:46.081Z,99793.83
2018-12-25T23:22:16.385Z,99788.08
2018-12-25T23:24:50.131Z,99782.30
2018-12-25T23:27:20.711Z,99786.06
2018-12-25T23:29:51.299Z,99781.11
2018-12-25T23:32:21.857Z,99772.87
2018-12-25T23:34:52.341Z,99771.33
2018-12-25T23:37:22.870Z,99766.70
2018-12-25T23:39:53.343Z,99777.45
2018-12-25T23:42:23.780Z,99788.59
2018-12-25T23:44:54.074Z,99779.57
2018-12-25T23:47:24.556Z,99777.41
2018-12-25T23:49:55.285Z,99772.95
2018-12-25T23:52:26.115Z,99771.91
2018-12-25T23:54:56.363Z,99769.79
2018-12-25T23:57:26.942Z,99763.72
2018-12-25T23:59:57.351Z,99762.59
